sensor_id;sensor_type;location;lat;lon;timestamp;temperature;humidity
3356;DHT22;1691;52.486;13.374;2023-06-24T00:08:38;17.90;98.70
3356;DHT22;1691;52.486;13.374;2023-06-24T00:11:54;17.80;98.70
3356;DHT22;1691;52.486;13.374;2023-06-24T00:23:32;17.80;98.70
3356;DHT22;1691;52.486;13.374;2023-06-24T00:27:14;17.70;98.70
3356;DHT22;1691;52.486;13.374;2023-06-24T00:34:31;17.60;98.70
3356;DHT22;1691;52.486;13.374;2023-06-24T00:38:26;17.50;98.70
3356;DHT22;1691;52.486;13.374;2023-06-24T00:46:14;17.40;98.70
3356;DHT22;1691;52.486;13.374;2023-06-24T00:49:56;17.30;98.70
3356;DHT22;1691;52.486;13.374;2023-06-24T00:53:39;17.20;98.70
3356;DHT22;1691;52.486;13.374;2023-06-24T00:57:04;17.10;98.70
3356;DHT22;1691;52.486;13.374;2023-06-24T01:00:13;17.10;98.70
3356;DHT22;1691;52.486;13.374;2023-06-24T01:07:55;17.00;98.70
3356;DHT22;1691;52.486;13.374;2023-06-24T01:14:48;16.90;98.70
3356;DHT22;1691;52.486;13.374;2023-06-24T01:35:00;16.70;98.70
3356;DHT22;1691;52.486;13.374;2023-06-24T01:42:12;16.60;98.70
3356;DHT22;1691;52.486;13.374;2023-06-24T01:45:51;16.60;98.70
3356;DHT22;1691;52.486;13.374;2023-06-24T01:49:23;16.50;98.70
3356;DHT22;1691;52.486;13.374;2023-06-24T01:53:00;16.50;98.70
3356;DHT22;1691;52.486;13.374;2023-06-24T01:56:43;16.50;98.70
3356;DHT22;1691;52.486;13.374;2023-06-24T02:00:27;16.40;98.70
3356;DHT22;1691;52.486;13.374;2023-06-24T02:07:45;16.40;98.70
3356;DHT22;1691;52.486;13.374;2023-06-24T02:10:34;16.40;98.70
3356;DHT22;1691;52.486;13.374;2023-06-24T02:21:23;16.30;98.70
3356;DHT22;1691;52.486;13.374;2023-06-24T02:24:21;16.30;98.70
3356;DHT22;1691;52.486;13.374;2023-06-24T03:13:39;16.30;98.70
3356;DHT22;1691;52.486;13.374;2023-06-24T03:25:58;16.20;98.70
3356;DHT22;1691;52.486;13.374;2023-06-24T03:29:15;16.20;98.70
3356;DHT22;1691;52.486;13.374;2023-06-24T03:42:07;16.30;98.70
3356;DHT22;1691;52.486;13.374;2023-06-24T03:53:52;16.40;98.70
3356;DHT22;1691;52.486;13.374;2023-06-24T04:01:57;16.50;98.70
3356;DHT22;1691;52.486;13.374;2023-06-24T04:05:33;16.80;98.70
3356;DHT22;1691;52.486;13.374;2023-06-24T04:13:09;17.70;98.70
3356;DHT22;1691;52.486;13.374;2023-06-24T04:16:09;17.80;98.70
3356;DHT22;1691;52.486;13.374;2023-06-24T04:19:52;17.80;98.70
3356;DHT22;1691;52.486;13.374;2023-06-24T04:22:50;17.60;98.70
3356;DHT22;1691;52.486;13.374;2023-06-24T04:26:14;17.60;98.70
3356;DHT22;1691;52.486;13.374;2023-06-24T04:29:33;17.80;98.70
3356;DHT22;1691;52.486;13.374;2023-06-24T04:36:49;18.60;98.70
3356;DHT22;1691;52.486;13.374;2023-06-24T04:40:32;19.20;98.70
3356;DHT22;1691;52.486;13.374;2023-06-24T04:47:44;19.90;98.70
3356;DHT22;1691;52.486;13.374;2023-06-24T05:08:09;21.50;98.70
3356;DHT22;1691;52.486;13.374;2023-06-24T05:11:42;22.10;98.70
3356;DHT22;1691;52.486;13.374;2023-06-24T05:15:13;22.80;98.70
3356;DHT22;1691;52.486;13.374;2023-06-24T05:19:16;23.40;98.70
3356;DHT22;1691;52.486;13.374;2023-06-24T05:56:38;26.90;85.40
3356;DHT22;1691;52.486;13.374;2023-06-24T06:00:17;26.80;85.40
3356;DHT22;1691;52.486;13.374;2023-06-24T06:03:01;27.40;82.40
3356;DHT22;1691;52.486;13.374;2023-06-24T06:05:43;27.90;82.10
3356;DHT22;1691;52.486;13.374;2023-06-24T06:08:10;28.30;79.30
3356;DHT22;1691;52.486;13.374;2023-06-24T06:10:37;28.60;76.50
3356;DHT22;1691;52.486;13.374;2023-06-24T06:13:04;28.90;73.90
3356;DHT22;1691;52.486;13.374;2023-06-24T06:15:31;29.20;72.00
3356;DHT22;1691;52.486;13.374;2023-06-24T06:17:58;29.40;70.10
3356;DHT22;1691;52.486;13.374;2023-06-24T06:20:25;29.70;68.50
3356;DHT22;1691;52.486;13.374;2023-06-24T06:22:52;30.00;67.40
3356;DHT22;1691;52.486;13.374;2023-06-24T06:25:19;30.40;66.20
3356;DHT22;1691;52.486;13.374;2023-06-24T06:27:46;30.80;64.70
3356;DHT22;1691;52.486;13.374;2023-06-24T06:30:13;31.10;63.80
3356;DHT22;1691;52.486;13.374;2023-06-24T06:32:40;31.50;62.30
3356;DHT22;1691;52.486;13.374;2023-06-24T06:35:07;32.00;61.00
3356;DHT22;1691;52.486;13.374;2023-06-24T06:37:34;32.40;59.60
3356;DHT22;1691;52.486;13.374;2023-06-24T06:40:02;32.70;58.50
3356;DHT22;1691;52.486;13.374;2023-06-24T06:42:30;33.00;57.30
3356;DHT22;1691;52.486;13.374;2023-06-24T06:44:57;33.30;56.40
3356;DHT22;1691;52.486;13.374;2023-06-24T06:47:24;33.60;55.50
3356;DHT22;1691;52.486;13.374;2023-06-24T06:49:51;33.70;54.70
3356;DHT22;1691;52.486;13.374;2023-06-24T06:52:18;33.70;54.40
3356;DHT22;1691;52.486;13.374;2023-06-24T06:54:45;33.70;54.10
3356;DHT22;1691;52.486;13.374;2023-06-24T06:57:12;34.10;53.50
3356;DHT22;1691;52.486;13.374;2023-06-24T06:59:39;34.50;52.20
3356;DHT22;1691;52.486;13.374;2023-06-24T07:02:06;34.70;51.30
3356;DHT22;1691;52.486;13.374;2023-06-24T07:04:33;34.90;50.70
3356;DHT22;1691;52.486;13.374;2023-06-24T07:07:00;35.00;49.60
3356;DHT22;1691;52.486;13.374;2023-06-24T07:09:27;35.20;49.00
3356;DHT22;1691;52.486;13.374;2023-06-24T07:11:54;35.50;48.40
3356;DHT22;1691;52.486;13.374;2023-06-24T07:14:21;35.70;47.60
3356;DHT22;1691;52.486;13.374;2023-06-24T07:16:48;35.80;46.40
3356;DHT22;1691;52.486;13.374;2023-06-24T07:19:15;35.70;46.10
3356;DHT22;1691;52.486;13.374;2023-06-24T07:21:42;35.80;45.80
3356;DHT22;1691;52.486;13.374;2023-06-24T07:24:09;36.00;44.90
3356;DHT22;1691;52.486;13.374;2023-06-24T07:26:36;36.10;44.10
3356;DHT22;1691;52.486;13.374;2023-06-24T07:29:06;36.20;43.80
3356;DHT22;1691;52.486;13.374;2023-06-24T07:31:36;36.50;43.30
3356;DHT22;1691;52.486;13.374;2023-06-24T07:34:04;36.70;43.20
3356;DHT22;1691;52.486;13.374;2023-06-24T07:36:32;36.70;42.70
3356;DHT22;1691;52.486;13.374;2023-06-24T07:38:59;36.40;42.50
3356;DHT22;1691;52.486;13.374;2023-06-24T07:41:26;36.30;42.50
3356;DHT22;1691;52.486;13.374;2023-06-24T07:43:53;36.50;42.40
3356;DHT22;1691;52.486;13.374;2023-06-24T07:46:20;36.90;42.10
3356;DHT22;1691;52.486;13.374;2023-06-24T07:48:47;36.80;41.60
3356;DHT22;1691;52.486;13.374;2023-06-24T07:51:14;36.10;41.90
3356;DHT22;1691;52.486;13.374;2023-06-24T07:53:41;34.90;43.20
3356;DHT22;1691;52.486;13.374;2023-06-24T07:56:08;34.10;44.70
3356;DHT22;1691;52.486;13.374;2023-06-24T07:58:35;34.20;44.90
3356;DHT22;1691;52.486;13.374;2023-06-24T08:01:04;34.80;44.40
3356;DHT22;1691;52.486;13.374;2023-06-24T08:03:33;35.70;43.00
3356;DHT22;1691;52.486;13.374;2023-06-24T08:06:00;36.40;41.60
3356;DHT22;1691;52.486;13.374;2023-06-24T08:08:27;36.40;41.30
3356;DHT22;1691;52.486;13.374;2023-06-24T08:10:54;36.70;41.30
3356;DHT22;1691;52.486;13.374;2023-06-24T08:13:21;36.60;41.50
3356;DHT22;1691;52.486;13.374;2023-06-24T08:15:48;36.40;41.60
3356;DHT22;1691;52.486;13.374;2023-06-24T08:18:15;36.10;41.50
3356;DHT22;1691;52.486;13.374;2023-06-24T08:20:42;35.40;42.40
3356;DHT22;1691;52.486;13.374;2023-06-24T08:23:09;35.40;42.70
3356;DHT22;1691;52.486;13.374;2023-06-24T08:25:36;35.70;42.10
3356;DHT22;1691;52.486;13.374;2023-06-24T08:28:03;35.20;42.20
3356;DHT22;1691;52.486;13.374;2023-06-24T08:30:30;34.80;42.90
3356;DHT22;1691;52.486;13.374;2023-06-24T08:32:58;34.30;43.60
3356;DHT22;1691;52.486;13.374;2023-06-24T08:35:25;34.60;43.60
3356;DHT22;1691;52.486;13.374;2023-06-24T08:37:52;34.90;42.90
3356;DHT22;1691;52.486;13.374;2023-06-24T08:40:19;35.00;42.50
3356;DHT22;1691;52.486;13.374;2023-06-24T08:42:46;35.40;41.90
3356;DHT22;1691;52.486;13.374;2023-06-24T08:45:13;36.10;41.00
3356;DHT22;1691;52.486;13.374;2023-06-24T08:47:40;36.70;40.20
3356;DHT22;1691;52.486;13.374;2023-06-24T08:50:11;37.20;39.50
3356;DHT22;1691;52.486;13.374;2023-06-24T08:52:43;38.00;37.90
3356;DHT22;1691;52.486;13.374;2023-06-24T08:55:13;38.60;37.30
3356;DHT22;1691;52.486;13.374;2023-06-24T08:57:43;38.60;36.90
3356;DHT22;1691;52.486;13.374;2023-06-24T09:00:10;37.70;37.80
3356;DHT22;1691;52.486;13.374;2023-06-24T09:02:38;36.90;38.70
3356;DHT22;1691;52.486;13.374;2023-06-24T09:05:06;36.80;39.00
3356;DHT22;1691;52.486;13.374;2023-06-24T09:07:34;37.10;38.20
3356;DHT22;1691;52.486;13.374;2023-06-24T09:10:01;37.50;37.60
3356;DHT22;1691;52.486;13.374;2023-06-24T09:12:32;37.30;37.00
3356;DHT22;1691;52.486;13.374;2023-06-24T09:15:02;36.60;37.60
3356;DHT22;1691;52.486;13.374;2023-06-24T09:17:30;35.90;39.20
3356;DHT22;1691;52.486;13.374;2023-06-24T09:20:04;34.90;39.80
3356;DHT22;1691;52.486;13.374;2023-06-24T09:22:32;34.10;40.10
3356;DHT22;1691;52.486;13.374;2023-06-24T09:25:00;34.30;40.70
3356;DHT22;1691;52.486;13.374;2023-06-24T09:27:31;35.00;39.90
3356;DHT22;1691;52.486;13.374;2023-06-24T09:29:59;35.90;39.20
3356;DHT22;1691;52.486;13.374;2023-06-24T09:32:29;36.80;38.70
3356;DHT22;1691;52.486;13.374;2023-06-24T09:34:57;37.40;37.60
3356;DHT22;1691;52.486;13.374;2023-06-24T09:37:27;37.00;37.80
3356;DHT22;1691;52.486;13.374;2023-06-24T09:39:57;36.50;38.20
3356;DHT22;1691;52.486;13.374;2023-06-24T09:42:26;36.50;38.20
3356;DHT22;1691;52.486;13.374;2023-06-24T09:44:55;36.70;37.60
3356;DHT22;1691;52.486;13.374;2023-06-24T09:47:23;37.10;37.60
3356;DHT22;1691;52.486;13.374;2023-06-24T09:49:54;37.30;37.50
3356;DHT22;1691;52.486;13.374;2023-06-24T09:52:22;37.40;37.00
3356;DHT22;1691;52.486;13.374;2023-06-24T09:54:51;37.20;37.00
3356;DHT22;1691;52.486;13.374;2023-06-24T09:57:27;36.80;37.00
3356;DHT22;1691;52.486;13.374;2023-06-24T09:59:56;36.50;37.20
3356;DHT22;1691;52.486;13.374;2023-06-24T10:02:24;36.30;38.10
3356;DHT22;1691;52.486;13.374;2023-06-24T10:04:52;36.10;38.20
3356;DHT22;1691;52.486;13.374;2023-06-24T10:07:20;36.00;38.40
3356;DHT22;1691;52.486;13.374;2023-06-24T10:09:48;35.90;38.10
3356;DHT22;1691;52.486;13.374;2023-06-24T10:12:15;36.00;37.80
3356;DHT22;1691;52.486;13.374;2023-06-24T10:14:42;36.10;37.60
3356;DHT22;1691;52.486;13.374;2023-06-24T10:17:11;36.30;37.80
3356;DHT22;1691;52.486;13.374;2023-06-24T10:19:40;36.40;37.50
3356;DHT22;1691;52.486;13.374;2023-06-24T10:22:09;36.30;37.30
3356;DHT22;1691;52.486;13.374;2023-06-24T10:24:40;36.00;37.50
3356;DHT22;1691;52.486;13.374;2023-06-24T10:27:19;36.00;37.80
3356;DHT22;1691;52.486;13.374;2023-06-24T10:29:54;36.10;36.90
3356;DHT22;1691;52.486;13.374;2023-06-24T10:32:24;36.20;37.30
3356;DHT22;1691;52.486;13.374;2023-06-24T10:34:56;36.30;37.50
3356;DHT22;1691;52.486;13.374;2023-06-24T10:37:30;36.10;36.40
3356;DHT22;1691;52.486;13.374;2023-06-24T10:40:02;36.00;37.30
3356;DHT22;1691;52.486;13.374;2023-06-24T10:45:17;35.50;37.90
3356;DHT22;1691;52.486;13.374;2023-06-24T10:47:49;35.40;38.20
3356;DHT22;1691;52.486;13.374;2023-06-24T10:50:20;35.20;38.90
3356;DHT22;1691;52.486;13.374;2023-06-24T10:52:49;35.20;39.50
3356;DHT22;1691;52.486;13.374;2023-06-24T10:55:26;35.00;39.60
3356;DHT22;1691;52.486;13.374;2023-06-24T10:57:53;34.90;39.60
3356;DHT22;1691;52.486;13.374;2023-06-24T11:00:21;34.90;40.10
3356;DHT22;1691;52.486;13.374;2023-06-24T11:02:49;34.80;40.40
3356;DHT22;1691;52.486;13.374;2023-06-24T11:05:16;34.60;40.90
3356;DHT22;1691;52.486;13.374;2023-06-24T11:07:43;34.30;41.50
3356;DHT22;1691;52.486;13.374;2023-06-24T11:10:12;33.90;42.10
3356;DHT22;1691;52.486;13.374;2023-06-24T11:12:41;33.40;41.60
3356;DHT22;1691;52.486;13.374;2023-06-24T11:15:11;33.00;42.10
3356;DHT22;1691;52.486;13.374;2023-06-24T11:17:40;32.50;42.20
3356;DHT22;1691;52.486;13.374;2023-06-24T11:20:09;31.80;43.00
3356;DHT22;1691;52.486;13.374;2023-06-24T11:22:42;31.20;44.20
3356;DHT22;1691;52.486;13.374;2023-06-24T11:25:17;30.70;45.00
3356;DHT22;1691;52.486;13.374;2023-06-24T11:27:45;30.40;45.30
3356;DHT22;1691;52.486;13.374;2023-06-24T11:30:12;29.90;46.70
3356;DHT22;1691;52.486;13.374;2023-06-24T11:32:42;29.60;47.00
3356;DHT22;1691;52.486;13.374;2023-06-24T11:35:11;29.20;47.20
3356;DHT22;1691;52.486;13.374;2023-06-24T11:37:43;28.80;48.20
3356;DHT22;1691;52.486;13.374;2023-06-24T11:40:13;28.50;48.50
3356;DHT22;1691;52.486;13.374;2023-06-24T11:42:45;28.10;49.20
3356;DHT22;1691;52.486;13.374;2023-06-24T11:45:14;27.80;49.80
3356;DHT22;1691;52.486;13.374;2023-06-24T11:47:46;27.40;50.40
3356;DHT22;1691;52.486;13.374;2023-06-24T11:50:15;27.10;51.30
3356;DHT22;1691;52.486;13.374;2023-06-24T11:52:45;27.00;51.90
3356;DHT22;1691;52.486;13.374;2023-06-24T11:55:20;26.90;52.40
3356;DHT22;1691;52.486;13.374;2023-06-24T12:00:30;26.70;53.20
3356;DHT22;1691;52.486;13.374;2023-06-24T12:03:01;26.60;53.30
3356;DHT22;1691;52.486;13.374;2023-06-24T12:06:01;26.50;53.50
3356;DHT22;1691;52.486;13.374;2023-06-24T12:10:04;26.40;53.00
3356;DHT22;1691;52.486;13.374;2023-06-24T12:13:51;26.40;53.90
3356;DHT22;1691;52.486;13.374;2023-06-24T12:18:58;26.30;55.30
3356;DHT22;1691;52.486;13.374;2023-06-24T12:34:26;26.10;58.10
3356;DHT22;1691;52.486;13.374;2023-06-24T12:38:02;26.00;58.40
3356;DHT22;1691;52.486;13.374;2023-06-24T13:00:39;26.10;60.50
3356;DHT22;1691;52.486;13.374;2023-06-24T13:04:08;26.10;58.50
3356;DHT22;1691;52.486;13.374;2023-06-24T13:12:25;26.20;58.90
3356;DHT22;1691;52.486;13.374;2023-06-24T13:37:43;26.40;60.30
3356;DHT22;1691;52.486;13.374;2023-06-24T13:41:49;26.40;60.80
3356;DHT22;1691;52.486;13.374;2023-06-24T13:44:49;26.50;59.60
3356;DHT22;1691;52.486;13.374;2023-06-24T13:47:53;26.50;60.60
3356;DHT22;1691;52.486;13.374;2023-06-24T13:56:23;26.60;58.20
3356;DHT22;1691;52.486;13.374;2023-06-24T14:50:47;26.70;58.40
3356;DHT22;1691;52.486;13.374;2023-06-24T15:06:31;26.70;56.50
3356;DHT22;1691;52.486;13.374;2023-06-24T16:13:49;27.10;57.00
3356;DHT22;1691;52.486;13.374;2023-06-24T16:48:50;27.30;56.10
3356;DHT22;1691;52.486;13.374;2023-06-24T18:08:35;26.20;61.40
3356;DHT22;1691;52.486;13.374;2023-06-24T18:32:09;25.80;59.00
3356;DHT22;1691;52.486;13.374;2023-06-24T18:40:28;25.60;59.90
3356;DHT22;1691;52.486;13.374;2023-06-24T18:43:39;25.40;60.10
3356;DHT22;1691;52.486;13.374;2023-06-24T18:50:59;25.20;61.80
3356;DHT22;1691;52.486;13.374;2023-06-24T19:05:52;24.70;63.40
3356;DHT22;1691;52.486;13.374;2023-06-24T19:13:20;24.50;64.40
3356;DHT22;1691;52.486;13.374;2023-06-24T19:16:40;24.30;64.90
3356;DHT22;1691;52.486;13.374;2023-06-24T19:39:36;23.70;67.40
3356;DHT22;1691;52.486;13.374;2023-06-24T19:47:04;23.50;68.10
3356;DHT22;1691;52.486;13.374;2023-06-24T20:35:29;22.40;72.90
3356;DHT22;1691;52.486;13.374;2023-06-24T20:39:04;22.40;73.10
3356;DHT22;1691;52.486;13.374;2023-06-24T20:42:30;22.30;73.50
3356;DHT22;1691;52.486;13.374;2023-06-24T20:46:21;22.30;73.70
3356;DHT22;1691;52.486;13.374;2023-06-24T20:49:21;22.20;74.40
3356;DHT22;1691;52.486;13.374;2023-06-24T20:59:32;22.00;76.50
3356;DHT22;1691;52.486;13.374;2023-06-24T21:29:42;21.50;79.50
3356;DHT22;1691;52.486;13.374;2023-06-24T23:58:11;19.80;91.10
